sensor_id;sensor_type;location;lat;lon;timestamp;P1;durP1;ratioP1;P2;durP2;ratioP2
19877;SDS011;10101;52.204;9.910;2023-08-17T00:01:31;4.00;;;1.90;;
19877;SDS011;10101;52.204;9.910;2023-08-17T00:03:58;3.03;;;2.00;;
19877;SDS011;10101;52.204;9.910;2023-08-17T00:06:25;4.97;;;2.33;;
19877;SDS011;10101;52.204;9.910;2023-08-17T00:08:51;3.00;;;2.03;;
19877;SDS011;10101;52.204;9.910;2023-08-17T00:11:18;3.90;;;2.27;;
19877;SDS011;10101;52.204;9.910;2023-08-17T00:13:45;4.00;;;2.07;;
19877;SDS011;10101;52.204;9.910;2023-08-17T00:16:13;4.37;;;2.20;;
19877;SDS011;10101;52.204;9.910;2023-08-17T00:18:40;5.23;;;2.20;;
19877;SDS011;10101;52.204;9.910;2023-08-17T00:21:06;8.63;;;2.23;;
19877;SDS011;10101;52.204;9.910;2023-08-17T00:23:33;4.10;;;2.40;;
19877;SDS011;10101;52.204;9.910;2023-08-17T00:26:00;5.50;;;2.50;;
19877;SDS011;10101;52.204;9.910;2023-08-17T00:28:27;7.23;;;2.33;;
19877;SDS011;10101;52.204;9.910;2023-08-17T00:30:54;6.27;;;2.60;;
19877;SDS011;10101;52.204;9.910;2023-08-17T00:33:22;5.37;;;2.47;;
19877;SDS011;10101;52.204;9.910;2023-08-17T00:35:49;4.47;;;2.20;;
19877;SDS011;10101;52.204;9.910;2023-08-17T00:38:15;6.23;;;2.73;;
19877;SDS011;10101;52.204;9.910;2023-08-17T00:40:42;5.50;;;2.47;;
19877;SDS011;10101;52.204;9.910;2023-08-17T00:43:09;7.20;;;2.30;;
19877;SDS011;10101;52.204;9.910;2023-08-17T00:45:36;4.87;;;2.57;;
19877;SDS011;10101;52.204;9.910;2023-08-17T00:48:03;7.50;;;2.50;;
19877;SDS011;10101;52.204;9.910;2023-08-17T00:50:34;5.73;;;2.20;;
19877;SDS011;10101;52.204;9.910;2023-08-17T00:53:02;5.83;;;2.53;;
19877;SDS011;10101;52.204;9.910;2023-08-17T00:55:30;2.40;;;2.07;;
19877;SDS011;10101;52.204;9.910;2023-08-17T00:57:57;6.03;;;2.43;;
19877;SDS011;10101;52.204;9.910;2023-08-17T01:00:24;6.47;;;2.40;;
19877;SDS011;10101;52.204;9.910;2023-08-17T01:02:52;3.07;;;2.13;;
19877;SDS011;10101;52.204;9.910;2023-08-17T01:05:20;5.13;;;2.33;;
19877;SDS011;10101;52.204;9.910;2023-08-17T01:07:48;5.33;;;2.30;;
19877;SDS011;10101;52.204;9.910;2023-08-17T01:10:15;5.50;;;2.20;;
19877;SDS011;10101;52.204;9.910;2023-08-17T01:12:44;4.90;;;2.80;;
19877;SDS011;10101;52.204;9.910;2023-08-17T01:15:15;5.47;;;2.50;;
19877;SDS011;10101;52.204;9.910;2023-08-17T01:17:47;6.53;;;2.50;;
19877;SDS011;10101;52.204;9.910;2023-08-17T01:20:21;5.63;;;2.50;;
19877;SDS011;10101;52.204;9.910;2023-08-17T01:22:52;4.67;;;2.50;;
19877;SDS011;10101;52.204;9.910;2023-08-17T01:25:24;4.47;;;2.60;;
19877;SDS011;10101;52.204;9.910;2023-08-17T01:27:50;7.33;;;2.73;;
19877;SDS011;10101;52.204;9.910;2023-08-17T01:30:17;4.87;;;2.70;;
19877;SDS011;10101;52.204;9.910;2023-08-17T01:32:48;5.40;;;2.70;;
19877;SDS011;10101;52.204;9.910;2023-08-17T01:35:21;5.20;;;2.70;;
19877;SDS011;10101;52.204;9.910;2023-08-17T01:37:54;5.50;;;2.50;;
19877;SDS011;10101;52.204;9.910;2023-08-17T01:40:26;5.63;;;2.60;;
19877;SDS011;10101;52.204;9.910;2023-08-17T01:42:54;4.93;;;2.53;;
19877;SDS011;10101;52.204;9.910;2023-08-17T01:45:22;4.80;;;2.90;;
19877;SDS011;10101;52.204;9.910;2023-08-17T01:47:48;6.93;;;2.97;;
19877;SDS011;10101;52.204;9.910;2023-08-17T01:50:15;6.50;;;3.10;;
19877;SDS011;10101;52.204;9.910;2023-08-17T01:52:42;4.40;;;2.60;;
19877;SDS011;10101;52.204;9.910;2023-08-17T01:55:09;4.90;;;2.50;;
19877;SDS011;10101;52.204;9.910;2023-08-17T01:57:37;7.50;;;2.77;;
19877;SDS011;10101;52.204;9.910;2023-08-17T02:00:04;6.83;;;3.10;;
19877;SDS011;10101;52.204;9.910;2023-08-17T02:02:31;5.03;;;2.70;;
19877;SDS011;10101;52.204;9.910;2023-08-17T02:04:58;6.27;;;2.70;;
19877;SDS011;10101;52.204;9.910;2023-08-17T02:07:25;4.53;;;2.53;;
19877;SDS011;10101;52.204;9.910;2023-08-17T02:09:52;3.73;;;2.53;;
19877;SDS011;10101;52.204;9.910;2023-08-17T02:12:18;5.00;;;2.87;;
19877;SDS011;10101;52.204;9.910;2023-08-17T02:14:46;4.23;;;2.73;;
19877;SDS011;10101;52.204;9.910;2023-08-17T02:17:13;6.13;;;3.03;;
19877;SDS011;10101;52.204;9.910;2023-08-17T02:19:41;3.30;;;2.60;;
19877;SDS011;10101;52.204;9.910;2023-08-17T02:22:08;4.90;;;2.67;;
19877;SDS011;10101;52.204;9.910;2023-08-17T02:24:35;5.03;;;3.00;;
19877;SDS011;10101;52.204;9.910;2023-08-17T02:27:02;5.10;;;2.53;;
19877;SDS011;10101;52.204;9.910;2023-08-17T02:29:29;5.27;;;2.90;;
19877;SDS011;10101;52.204;9.910;2023-08-17T02:31:57;4.20;;;2.70;;
19877;SDS011;10101;52.204;9.910;2023-08-17T02:34:24;5.77;;;2.53;;
19877;SDS011;10101;52.204;9.910;2023-08-17T02:36:51;3.77;;;2.63;;
19877;SDS011;10101;52.204;9.910;2023-08-17T02:39:18;4.17;;;2.70;;
19877;SDS011;10101;52.204;9.910;2023-08-17T02:41:44;9.07;;;2.73;;
19877;SDS011;10101;52.204;9.910;2023-08-17T02:44:14;5.60;;;3.40;;
19877;SDS011;10101;52.204;9.910;2023-08-17T02:46:40;5.50;;;2.97;;
19877;SDS011;10101;52.204;9.910;2023-08-17T02:49:09;8.00;;;2.93;;
19877;SDS011;10101;52.204;9.910;2023-08-17T02:51:36;4.07;;;3.10;;
19877;SDS011;10101;52.204;9.910;2023-08-17T02:54:02;7.40;;;2.93;;
19877;SDS011;10101;52.204;9.910;2023-08-17T02:56:30;6.87;;;3.50;;
19877;SDS011;10101;52.204;9.910;2023-08-17T02:58:56;5.30;;;3.20;;
19877;SDS011;10101;52.204;9.910;2023-08-17T03:01:24;4.97;;;2.83;;
19877;SDS011;10101;52.204;9.910;2023-08-17T03:03:51;6.83;;;3.03;;
19877;SDS011;10101;52.204;9.910;2023-08-17T03:06:19;6.00;;;2.83;;
19877;SDS011;10101;52.204;9.910;2023-08-17T03:08:46;7.50;;;2.80;;
19877;SDS011;10101;52.204;9.910;2023-08-17T03:11:13;6.67;;;2.87;;
19877;SDS011;10101;52.204;9.910;2023-08-17T03:13:39;3.73;;;2.57;;
19877;SDS011;10101;52.204;9.910;2023-08-17T03:16:06;3.30;;;2.73;;
19877;SDS011;10101;52.204;9.910;2023-08-17T03:18:33;4.97;;;2.90;;
19877;SDS011;10101;52.204;9.910;2023-08-17T03:20:59;4.67;;;3.17;;
19877;SDS011;10101;52.204;9.910;2023-08-17T03:23:27;4.97;;;2.63;;
19877;SDS011;10101;52.204;9.910;2023-08-17T03:25:54;9.23;;;3.10;;
19877;SDS011;10101;52.204;9.910;2023-08-17T03:28:21;4.03;;;2.57;;
19877;SDS011;10101;52.204;9.910;2023-08-17T03:30:48;5.97;;;3.07;;
19877;SDS011;10101;52.204;9.910;2023-08-17T03:33:15;3.97;;;2.63;;
19877;SDS011;10101;52.204;9.910;2023-08-17T03:35:42;4.40;;;2.70;;
19877;SDS011;10101;52.204;9.910;2023-08-17T03:38:08;3.43;;;2.40;;
19877;SDS011;10101;52.204;9.910;2023-08-17T03:40:36;6.60;;;2.40;;
19877;SDS011;10101;52.204;9.910;2023-08-17T03:43:03;2.70;;;2.00;;
19877;SDS011;10101;52.204;9.910;2023-08-17T03:45:30;2.87;;;2.23;;
19877;SDS011;10101;52.204;9.910;2023-08-17T03:47:57;5.53;;;2.13;;
19877;SDS011;10101;52.204;9.910;2023-08-17T03:50:25;2.93;;;1.77;;
19877;SDS011;10101;52.204;9.910;2023-08-17T03:52:53;2.87;;;1.90;;
19877;SDS011;10101;52.204;9.910;2023-08-17T03:55:20;4.03;;;1.83;;
19877;SDS011;10101;52.204;9.910;2023-08-17T03:57:48;2.77;;;1.80;;
19877;SDS011;10101;52.204;9.910;2023-08-17T04:00:15;2.53;;;2.10;;
19877;SDS011;10101;52.204;9.910;2023-08-17T04:02:43;3.77;;;2.30;;
19877;SDS011;10101;52.204;9.910;2023-08-17T04:05:09;2.77;;;2.10;;
19877;SDS011;10101;52.204;9.910;2023-08-17T04:07:36;3.07;;;2.13;;
19877;SDS011;10101;52.204;9.910;2023-08-17T04:10:05;3.33;;;2.30;;
19877;SDS011;10101;52.204;9.910;2023-08-17T04:12:32;3.97;;;2.10;;
19877;SDS011;10101;52.204;9.910;2023-08-17T04:15:00;2.93;;;2.23;;
19877;SDS011;10101;52.204;9.910;2023-08-17T04:17:27;6.30;;;2.57;;
19877;SDS011;10101;52.204;9.910;2023-08-17T04:19:53;4.30;;;2.03;;
19877;SDS011;10101;52.204;9.910;2023-08-17T04:22:20;2.40;;;2.17;;
19877;SDS011;10101;52.204;9.910;2023-08-17T04:24:47;2.83;;;2.00;;
19877;SDS011;10101;52.204;9.910;2023-08-17T04:27:14;2.30;;;2.00;;
19877;SDS011;10101;52.204;9.910;2023-08-17T04:29:40;5.40;;;2.30;;
19877;SDS011;10101;52.204;9.910;2023-08-17T04:32:13;4.20;;;2.37;;
19877;SDS011;10101;52.204;9.910;2023-08-17T04:34:41;3.60;;;2.40;;
19877;SDS011;10101;52.204;9.910;2023-08-17T04:37:07;2.13;;;1.97;;
19877;SDS011;10101;52.204;9.910;2023-08-17T04:39:34;4.90;;;2.60;;
19877;SDS011;10101;52.204;9.910;2023-08-17T04:42:02;3.20;;;2.40;;
19877;SDS011;10101;52.204;9.910;2023-08-17T04:44:29;2.57;;;2.37;;
19877;SDS011;10101;52.204;9.910;2023-08-17T04:46:56;3.10;;;2.50;;
19877;SDS011;10101;52.204;9.910;2023-08-17T04:49:24;3.07;;;2.67;;
19877;SDS011;10101;52.204;9.910;2023-08-17T04:51:51;2.60;;;2.33;;
19877;SDS011;10101;52.204;9.910;2023-08-17T04:54:18;3.87;;;2.60;;
19877;SDS011;10101;52.204;9.910;2023-08-17T04:56:44;6.03;;;3.20;;
19877;SDS011;10101;52.204;9.910;2023-08-17T04:59:11;5.37;;;2.83;;
19877;SDS011;10101;52.204;9.910;2023-08-17T05:01:38;6.50;;;3.10;;
19877;SDS011;10101;52.204;9.910;2023-08-17T05:04:05;3.30;;;2.80;;
19877;SDS011;10101;52.204;9.910;2023-08-17T05:06:33;4.13;;;2.93;;
19877;SDS011;10101;52.204;9.910;2023-08-17T05:09:02;5.00;;;3.20;;
19877;SDS011;10101;52.204;9.910;2023-08-17T05:11:30;4.93;;;3.03;;
19877;SDS011;10101;52.204;9.910;2023-08-17T05:13:56;3.73;;;2.93;;
19877;SDS011;10101;52.204;9.910;2023-08-17T05:16:23;6.77;;;3.47;;
19877;SDS011;10101;52.204;9.910;2023-08-17T05:18:50;3.77;;;3.10;;
19877;SDS011;10101;52.204;9.910;2023-08-17T05:21:16;7.80;;;2.83;;
19877;SDS011;10101;52.204;9.910;2023-08-17T05:23:44;5.17;;;2.80;;
19877;SDS011;10101;52.204;9.910;2023-08-17T05:26:11;7.07;;;3.20;;
19877;SDS011;10101;52.204;9.910;2023-08-17T05:28:38;6.07;;;3.50;;
19877;SDS011;10101;52.204;9.910;2023-08-17T05:31:05;4.90;;;2.97;;
19877;SDS011;10101;52.204;9.910;2023-08-17T05:33:32;3.87;;;2.70;;
19877;SDS011;10101;52.204;9.910;2023-08-17T05:35:58;3.30;;;3.00;;
19877;SDS011;10101;52.204;9.910;2023-08-17T05:38:25;4.80;;;2.80;;
19877;SDS011;10101;52.204;9.910;2023-08-17T05:40:55;4.53;;;3.13;;
19877;SDS011;10101;52.204;9.910;2023-08-17T05:43:22;5.83;;;3.07;;
19877;SDS011;10101;52.204;9.910;2023-08-17T05:45:49;3.37;;;3.07;;
19877;SDS011;10101;52.204;9.910;2023-08-17T05:48:18;5.60;;;3.63;;
19877;SDS011;10101;52.204;9.910;2023-08-17T05:50:45;3.73;;;3.30;;
19877;SDS011;10101;52.204;9.910;2023-08-17T05:53:12;7.17;;;3.40;;
19877;SDS011;10101;52.204;9.910;2023-08-17T05:55:39;7.13;;;3.87;;
19877;SDS011;10101;52.204;9.910;2023-08-17T05:58:07;4.77;;;3.53;;
19877;SDS011;10101;52.204;9.910;2023-08-17T06:00:34;6.43;;;3.23;;
19877;SDS011;10101;52.204;9.910;2023-08-17T06:03:01;5.70;;;3.20;;
19877;SDS011;10101;52.204;9.910;2023-08-17T06:05:28;4.30;;;3.43;;
19877;SDS011;10101;52.204;9.910;2023-08-17T06:07:55;5.13;;;3.17;;
19877;SDS011;10101;52.204;9.910;2023-08-17T06:10:22;5.00;;;3.50;;
19877;SDS011;10101;52.204;9.910;2023-08-17T06:12:50;5.20;;;3.30;;
19877;SDS011;10101;52.204;9.910;2023-08-17T06:15:18;4.43;;;3.50;;
19877;SDS011;10101;52.204;9.910;2023-08-17T06:17:45;4.00;;;3.37;;
19877;SDS011;10101;52.204;9.910;2023-08-17T06:20:15;4.10;;;3.60;;
19877;SDS011;10101;52.204;9.910;2023-08-17T06:22:42;5.37;;;3.47;;
19877;SDS011;10101;52.204;9.910;2023-08-17T06:25:09;6.83;;;3.67;;
19877;SDS011;10101;52.204;9.910;2023-08-17T06:27:36;5.43;;;3.63;;
19877;SDS011;10101;52.204;9.910;2023-08-17T06:30:03;4.83;;;3.87;;
19877;SDS011;10101;52.204;9.910;2023-08-17T06:32:31;6.43;;;3.80;;
19877;SDS011;10101;52.204;9.910;2023-08-17T06:34:58;5.03;;;3.67;;
19877;SDS011;10101;52.204;9.910;2023-08-17T06:37:25;4.33;;;3.63;;
19877;SDS011;10101;52.204;9.910;2023-08-17T06:39:52;7.93;;;3.80;;
19877;SDS011;10101;52.204;9.910;2023-08-17T06:42:18;3.83;;;3.40;;
19877;SDS011;10101;52.204;9.910;2023-08-17T06:44:45;4.37;;;3.60;;
19877;SDS011;10101;52.204;9.910;2023-08-17T06:47:12;9.73;;;4.00;;
19877;SDS011;10101;52.204;9.910;2023-08-17T06:49:40;4.57;;;3.60;;
19877;SDS011;10101;52.204;9.910;2023-08-17T06:52:07;6.57;;;3.60;;
19877;SDS011;10101;52.204;9.910;2023-08-17T06:54:34;4.17;;;3.50;;
19877;SDS011;10101;52.204;9.910;2023-08-17T06:57:00;10.73;;;3.60;;
19877;SDS011;10101;52.204;9.910;2023-08-17T06:59:27;3.60;;;3.23;;
19877;SDS011;10101;52.204;9.910;2023-08-17T07:01:54;4.13;;;2.93;;
19877;SDS011;10101;52.204;9.910;2023-08-17T07:04:20;12.10;;;3.20;;
19877;SDS011;10101;52.204;9.910;2023-08-17T07:06:48;4.40;;;3.10;;
19877;SDS011;10101;52.204;9.910;2023-08-17T07:09:15;5.23;;;3.17;;
19877;SDS011;10101;52.204;9.910;2023-08-17T07:11:42;8.67;;;3.13;;
19877;SDS011;10101;52.204;9.910;2023-08-17T07:14:09;4.77;;;3.23;;
19877;SDS011;10101;52.204;9.910;2023-08-17T07:16:36;3.93;;;3.03;;
19877;SDS011;10101;52.204;9.910;2023-08-17T07:19:03;6.30;;;3.00;;
19877;SDS011;10101;52.204;9.910;2023-08-17T07:21:30;5.80;;;3.00;;
19877;SDS011;10101;52.204;9.910;2023-08-17T07:23:58;4.57;;;2.60;;
19877;SDS011;10101;52.204;9.910;2023-08-17T07:26:38;3.50;;;2.80;;
19877;SDS011;10101;52.204;9.910;2023-08-17T07:29:04;2.90;;;2.60;;
19877;SDS011;10101;52.204;9.910;2023-08-17T07:31:31;2.97;;;2.40;;
19877;SDS011;10101;52.204;9.910;2023-08-17T07:33:58;5.57;;;2.33;;
19877;SDS011;10101;52.204;9.910;2023-08-17T07:36:25;2.87;;;2.30;;
19877;SDS011;10101;52.204;9.910;2023-08-17T07:38:52;2.83;;;2.60;;
19877;SDS011;10101;52.204;9.910;2023-08-17T07:41:20;2.63;;;2.10;;
19877;SDS011;10101;52.204;9.910;2023-08-17T07:43:46;2.47;;;2.10;;
19877;SDS011;10101;52.204;9.910;2023-08-17T07:46:13;3.47;;;2.23;;
19877;SDS011;10101;52.204;9.910;2023-08-17T07:48:40;5.20;;;2.53;;
19877;SDS011;10101;52.204;9.910;2023-08-17T07:51:07;3.10;;;2.10;;
19877;SDS011;10101;52.204;9.910;2023-08-17T07:53:34;6.10;;;2.33;;
19877;SDS011;10101;52.204;9.910;2023-08-17T07:56:00;3.90;;;2.50;;
19877;SDS011;10101;52.204;9.910;2023-08-17T07:58:28;2.50;;;2.30;;
19877;SDS011;10101;52.204;9.910;2023-08-17T08:00:55;3.37;;;2.50;;
19877;SDS011;10101;52.204;9.910;2023-08-17T08:03:22;2.33;;;2.13;;
19877;SDS011;10101;52.204;9.910;2023-08-17T08:05:49;3.43;;;2.37;;
19877;SDS011;10101;52.204;9.910;2023-08-17T08:08:15;4.83;;;2.40;;
19877;SDS011;10101;52.204;9.910;2023-08-17T08:10:43;2.90;;;2.23;;
19877;SDS011;10101;52.204;9.910;2023-08-17T08:13:10;2.40;;;2.20;;
19877;SDS011;10101;52.204;9.910;2023-08-17T08:15:38;4.90;;;2.10;;
19877;SDS011;10101;52.204;9.910;2023-08-17T08:18:04;4.60;;;2.07;;
19877;SDS011;10101;52.204;9.910;2023-08-17T08:20:32;2.97;;;2.33;;
19877;SDS011;10101;52.204;9.910;2023-08-17T08:22:59;2.67;;;2.20;;
19877;SDS011;10101;52.204;9.910;2023-08-17T08:25:27;5.30;;;2.50;;
19877;SDS011;10101;52.204;9.910;2023-08-17T08:27:54;2.87;;;2.30;;
19877;SDS011;10101;52.204;9.910;2023-08-17T08:30:20;4.73;;;2.03;;
19877;SDS011;10101;52.204;9.910;2023-08-17T08:32:48;2.57;;;2.13;;
19877;SDS011;10101;52.204;9.910;2023-08-17T08:35:16;2.53;;;2.33;;
19877;SDS011;10101;52.204;9.910;2023-08-17T08:37:43;4.77;;;2.30;;
19877;SDS011;10101;52.204;9.910;2023-08-17T08:40:10;2.40;;;2.20;;
19877;SDS011;10101;52.204;9.910;2023-08-17T08:42:39;2.77;;;2.30;;
19877;SDS011;10101;52.204;9.910;2023-08-17T08:45:06;2.83;;;2.40;;
19877;SDS011;10101;52.204;9.910;2023-08-17T08:47:33;2.77;;;2.57;;
19877;SDS011;10101;52.204;9.910;2023-08-17T08:50:03;4.03;;;2.30;;
19877;SDS011;10101;52.204;9.910;2023-08-17T08:52:32;4.47;;;2.20;;
19877;SDS011;10101;52.204;9.910;2023-08-17T08:55:03;2.40;;;2.20;;
19877;SDS011;10101;52.204;9.910;2023-08-17T08:57:37;5.07;;;2.50;;
19877;SDS011;10101;52.204;9.910;2023-08-17T09:00:05;6.20;;;2.47;;
19877;SDS011;10101;52.204;9.910;2023-08-17T09:02:33;2.77;;;2.57;;
19877;SDS011;10101;52.204;9.910;2023-08-17T09:05:00;3.30;;;2.33;;
19877;SDS011;10101;52.204;9.910;2023-08-17T09:07:29;4.40;;;2.50;;
19877;SDS011;10101;52.204;9.910;2023-08-17T09:09:57;6.17;;;2.70;;
19877;SDS011;10101;52.204;9.910;2023-08-17T09:12:24;3.07;;;2.43;;
19877;SDS011;10101;52.204;9.910;2023-08-17T09:14:51;4.50;;;2.37;;
19877;SDS011;10101;52.204;9.910;2023-08-17T09:17:22;6.17;;;2.30;;
19877;SDS011;10101;52.204;9.910;2023-08-17T09:19:49;2.83;;;2.30;;
19877;SDS011;10101;52.204;9.910;2023-08-17T09:22:21;4.43;;;2.70;;
19877;SDS011;10101;52.204;9.910;2023-08-17T09:24:50;4.20;;;2.80;;
19877;SDS011;10101;52.204;9.910;2023-08-17T09:27:17;2.90;;;2.50;;
19877;SDS011;10101;52.204;9.910;2023-08-17T09:29:44;3.20;;;2.90;;
19877;SDS011;10101;52.204;9.910;2023-08-17T09:32:11;3.70;;;2.60;;
19877;SDS011;10101;52.204;9.910;2023-08-17T09:34:41;5.17;;;3.00;;
19877;SDS011;10101;52.204;9.910;2023-08-17T09:37:07;2.97;;;2.70;;
19877;SDS011;10101;52.204;9.910;2023-08-17T09:39:34;2.90;;;2.60;;
19877;SDS011;10101;52.204;9.910;2023-08-17T09:42:02;2.97;;;2.67;;
19877;SDS011;10101;52.204;9.910;2023-08-17T09:44:32;3.07;;;2.73;;
19877;SDS011;10101;52.204;9.910;2023-08-17T09:46:59;3.03;;;2.70;;
19877;SDS011;10101;52.204;9.910;2023-08-17T09:49:29;3.93;;;2.80;;
19877;SDS011;10101;52.204;9.910;2023-08-17T09:51:58;3.63;;;2.37;;
19877;SDS011;10101;52.204;9.910;2023-08-17T09:54:26;2.93;;;1.97;;
19877;SDS011;10101;52.204;9.910;2023-08-17T09:56:53;2.53;;;2.00;;
19877;SDS011;10101;52.204;9.910;2023-08-17T09:59:22;2.43;;;2.10;;
19877;SDS011;10101;52.204;9.910;2023-08-17T10:01:50;2.07;;;1.97;;
19877;SDS011;10101;52.204;9.910;2023-08-17T10:04:20;1.87;;;1.70;;
19877;SDS011;10101;52.204;9.910;2023-08-17T10:06:48;3.60;;;1.83;;
19877;SDS011;10101;52.204;9.910;2023-08-17T10:09:19;3.13;;;2.00;;
19877;SDS011;10101;52.204;9.910;2023-08-17T10:11:53;3.03;;;1.90;;
19877;SDS011;10101;52.204;9.910;2023-08-17T10:14:25;2.30;;;1.70;;
19877;SDS011;10101;52.204;9.910;2023-08-17T10:16:57;1.80;;;1.70;;
19877;SDS011;10101;52.204;9.910;2023-08-17T10:19:30;2.23;;;1.90;;
19877;SDS011;10101;52.204;9.910;2023-08-17T10:22:03;2.23;;;2.03;;
19877;SDS011;10101;52.204;9.910;2023-08-17T10:24:36;2.23;;;1.80;;
19877;SDS011;10101;52.204;9.910;2023-08-17T10:27:04;3.37;;;1.90;;
19877;SDS011;10101;52.204;9.910;2023-08-17T10:29:33;3.83;;;2.00;;
19877;SDS011;10101;52.204;9.910;2023-08-17T10:32:02;1.87;;;1.77;;
19877;SDS011;10101;52.204;9.910;2023-08-17T10:34:30;2.33;;;2.00;;
19877;SDS011;10101;52.204;9.910;2023-08-17T10:36:57;2.60;;;1.80;;
19877;SDS011;10101;52.204;9.910;2023-08-17T10:39:25;4.00;;;1.90;;
19877;SDS011;10101;52.204;9.910;2023-08-17T10:41:53;3.30;;;1.60;;
19877;SDS011;10101;52.204;9.910;2023-08-17T10:49:49;3.70;;;1.90;;
19877;SDS011;10101;52.204;9.910;2023-08-17T10:52:24;2.93;;;2.07;;
19877;SDS011;10101;52.204;9.910;2023-08-17T10:54:55;5.07;;;2.50;;
19877;SDS011;10101;52.204;9.910;2023-08-17T10:57:29;2.27;;;2.10;;
19877;SDS011;10101;52.204;9.910;2023-08-17T11:00:15;3.67;;;2.00;;
19877;SDS011;10101;52.204;9.910;2023-08-17T11:02:45;5.10;;;2.70;;
19877;SDS011;10101;52.204;9.910;2023-08-17T11:05:35;6.73;;;2.70;;
19877;SDS011;10101;52.204;9.910;2023-08-17T11:08:04;6.57;;;3.00;;
19877;SDS011;10101;52.204;9.910;2023-08-17T11:10:31;5.57;;;3.13;;
19877;SDS011;10101;52.204;9.910;2023-08-17T11:12:58;6.87;;;4.00;;
19877;SDS011;10101;52.204;9.910;2023-08-17T11:15:34;5.30;;;3.43;;
19877;SDS011;10101;52.204;9.910;2023-08-17T11:18:03;6.13;;;4.20;;
19877;SDS011;10101;52.204;9.910;2023-08-17T11:20:31;5.03;;;3.80;;
19877;SDS011;10101;52.204;9.910;2023-08-17T11:22:58;5.10;;;4.17;;
19877;SDS011;10101;52.204;9.910;2023-08-17T11:25:25;5.07;;;4.57;;
19877;SDS011;10101;52.204;9.910;2023-08-17T11:27:52;7.97;;;4.33;;
19877;SDS011;10101;52.204;9.910;2023-08-17T11:30:20;4.67;;;4.27;;
19877;SDS011;10101;52.204;9.910;2023-08-17T11:32:48;5.07;;;4.30;;
19877;SDS011;10101;52.204;9.910;2023-08-17T11:35:16;5.87;;;3.83;;
19877;SDS011;10101;52.204;9.910;2023-08-17T11:37:43;5.60;;;4.63;;
19877;SDS011;10101;52.204;9.910;2023-08-17T11:40:10;8.27;;;4.60;;
19877;SDS011;10101;52.204;9.910;2023-08-17T11:42:37;4.93;;;4.37;;
19877;SDS011;10101;52.204;9.910;2023-08-17T11:45:05;4.77;;;4.20;;
19877;SDS011;10101;52.204;9.910;2023-08-17T11:47:34;5.60;;;4.57;;
19877;SDS011;10101;52.204;9.910;2023-08-17T11:50:02;6.43;;;4.30;;
19877;SDS011;10101;52.204;9.910;2023-08-17T11:52:31;6.07;;;4.63;;
19877;SDS011;10101;52.204;9.910;2023-08-17T11:54:58;7.70;;;4.63;;
19877;SDS011;10101;52.204;9.910;2023-08-17T11:57:25;9.13;;;4.50;;
19877;SDS011;10101;52.204;9.910;2023-08-17T11:59:53;4.70;;;4.13;;
19877;SDS011;10101;52.204;9.910;2023-08-17T12:02:20;5.80;;;4.53;;
19877;SDS011;10101;52.204;9.910;2023-08-17T12:04:49;7.33;;;4.53;;
19877;SDS011;10101;52.204;9.910;2023-08-17T12:07:17;5.23;;;4.10;;
19877;SDS011;10101;52.204;9.910;2023-08-17T12:09:44;4.83;;;4.33;;
19877;SDS011;10101;52.204;9.910;2023-08-17T12:12:12;6.67;;;4.03;;
19877;SDS011;10101;52.204;9.910;2023-08-17T12:14:40;8.97;;;4.50;;
19877;SDS011;10101;52.204;9.910;2023-08-17T12:17:08;5.03;;;4.37;;
19877;SDS011;10101;52.204;9.910;2023-08-17T12:19:40;8.77;;;4.40;;
19877;SDS011;10101;52.204;9.910;2023-08-17T12:22:07;6.07;;;4.53;;
19877;SDS011;10101;52.204;9.910;2023-08-17T12:24:35;7.63;;;4.27;;
19877;SDS011;10101;52.204;9.910;2023-08-17T12:27:04;5.73;;;4.37;;
19877;SDS011;10101;52.204;9.910;2023-08-17T12:29:31;8.00;;;4.83;;
19877;SDS011;10101;52.204;9.910;2023-08-17T12:31:58;8.57;;;4.30;;
19877;SDS011;10101;52.204;9.910;2023-08-17T12:34:26;6.40;;;4.07;;
19877;SDS011;10101;52.204;9.910;2023-08-17T12:36:53;5.60;;;3.80;;
19877;SDS011;10101;52.204;9.910;2023-08-17T12:39:20;4.67;;;3.83;;
19877;SDS011;10101;52.204;9.910;2023-08-17T12:41:48;7.53;;;4.20;;
19877;SDS011;10101;52.204;9.910;2023-08-17T12:44:15;6.50;;;4.33;;
19877;SDS011;10101;52.204;9.910;2023-08-17T12:46:42;7.23;;;4.50;;
19877;SDS011;10101;52.204;9.910;2023-08-17T12:49:09;6.20;;;3.37;;
19877;SDS011;10101;52.204;9.910;2023-08-17T12:51:35;6.00;;;3.60;;
19877;SDS011;10101;52.204;9.910;2023-08-17T12:54:03;7.23;;;4.00;;
19877;SDS011;10101;52.204;9.910;2023-08-17T12:56:30;6.60;;;3.90;;
19877;SDS011;10101;52.204;9.910;2023-08-17T12:58:58;5.80;;;3.77;;
19877;SDS011;10101;52.204;9.910;2023-08-17T13:01:25;6.83;;;4.17;;
19877;SDS011;10101;52.204;9.910;2023-08-17T13:03:51;6.17;;;4.00;;
19877;SDS011;10101;52.204;9.910;2023-08-17T13:06:19;6.97;;;3.90;;
19877;SDS011;10101;52.204;9.910;2023-08-17T13:08:46;6.37;;;4.33;;
19877;SDS011;10101;52.204;9.910;2023-08-17T13:11:12;5.67;;;3.77;;
19877;SDS011;10101;52.204;9.910;2023-08-17T13:13:39;5.53;;;4.00;;
19877;SDS011;10101;52.204;9.910;2023-08-17T13:16:07;6.73;;;4.30;;
19877;SDS011;10101;52.204;9.910;2023-08-17T13:18:36;7.63;;;4.67;;
19877;SDS011;10101;52.204;9.910;2023-08-17T13:21:03;8.40;;;4.60;;
19877;SDS011;10101;52.204;9.910;2023-08-17T13:23:30;8.13;;;4.60;;
19877;SDS011;10101;52.204;9.910;2023-08-17T13:25:57;6.73;;;4.73;;
19877;SDS011;10101;52.204;9.910;2023-08-17T13:28:24;7.17;;;4.20;;
19877;SDS011;10101;52.204;9.910;2023-08-17T13:30:51;8.07;;;4.20;;
19877;SDS011;10101;52.204;9.910;2023-08-17T13:33:19;7.33;;;4.97;;
19877;SDS011;10101;52.204;9.910;2023-08-17T13:36:04;9.83;;;5.40;;
19877;SDS011;10101;52.204;9.910;2023-08-17T13:38:31;11.33;;;6.27;;
19877;SDS011;10101;52.204;9.910;2023-08-17T13:40:58;8.87;;;5.50;;
19877;SDS011;10101;52.204;9.910;2023-08-17T13:43:25;11.53;;;5.90;;
19877;SDS011;10101;52.204;9.910;2023-08-17T13:45:52;8.90;;;5.63;;
19877;SDS011;10101;52.204;9.910;2023-08-17T13:48:37;9.10;;;5.30;;
19877;SDS011;10101;52.204;9.910;2023-08-17T13:51:05;11.73;;;5.00;;
19877;SDS011;10101;52.204;9.910;2023-08-17T13:53:32;9.07;;;4.97;;
19877;SDS011;10101;52.204;9.910;2023-08-17T13:55:58;11.03;;;5.83;;
19877;SDS011;10101;52.204;9.910;2023-08-17T13:58:25;10.03;;;5.47;;
19877;SDS011;10101;52.204;9.910;2023-08-17T14:00:52;10.90;;;5.43;;
19877;SDS011;10101;52.204;9.910;2023-08-17T14:03:19;13.10;;;5.70;;
19877;SDS011;10101;52.204;9.910;2023-08-17T14:05:47;10.87;;;5.93;;
19877;SDS011;10101;52.204;9.910;2023-08-17T14:08:13;11.27;;;5.80;;
19877;SDS011;10101;52.204;9.910;2023-08-17T14:10:40;13.40;;;6.63;;
19877;SDS011;10101;52.204;9.910;2023-08-17T14:13:07;12.07;;;6.00;;
19877;SDS011;10101;52.204;9.910;2023-08-17T14:15:34;10.83;;;6.10;;
19877;SDS011;10101;52.204;9.910;2023-08-17T14:18:00;11.40;;;5.90;;
19877;SDS011;10101;52.204;9.910;2023-08-17T14:20:30;11.80;;;5.90;;
19877;SDS011;10101;52.204;9.910;2023-08-17T14:22:58;12.07;;;5.97;;
19877;SDS011;10101;52.204;9.910;2023-08-17T14:25:25;9.57;;;5.30;;
19877;SDS011;10101;52.204;9.910;2023-08-17T14:27:53;12.03;;;6.10;;
19877;SDS011;10101;52.204;9.910;2023-08-17T14:30:19;13.63;;;6.13;;
19877;SDS011;10101;52.204;9.910;2023-08-17T14:32:49;11.23;;;5.97;;
19877;SDS011;10101;52.204;9.910;2023-08-17T14:35:16;12.40;;;6.33;;
19877;SDS011;10101;52.204;9.910;2023-08-17T14:37:43;11.10;;;6.63;;
19877;SDS011;10101;52.204;9.910;2023-08-17T14:40:11;11.27;;;6.73;;
19877;SDS011;10101;52.204;9.910;2023-08-17T14:42:38;15.53;;;7.00;;
19877;SDS011;10101;52.204;9.910;2023-08-17T14:45:05;14.37;;;7.40;;
19877;SDS011;10101;52.204;9.910;2023-08-17T14:47:33;12.73;;;6.90;;
19877;SDS011;10101;52.204;9.910;2023-08-17T14:49:59;12.33;;;6.57;;
19877;SDS011;10101;52.204;9.910;2023-08-17T14:52:26;15.83;;;7.30;;
19877;SDS011;10101;52.204;9.910;2023-08-17T14:54:53;16.23;;;6.80;;